createdAt,value
2019-03-22T04:59:21.026Z,79.14
2019-03-22T05:00:20.963Z,79.27
2019-03-22T05:01:21.011Z,79.38
2019-03-22T05:02:20.963Z,79.17
2019-03-22T05:03:20.931Z,79.48
2019-03-22T05:04:20.926Z,79.69
2019-03-22T05:05:20.933Z,80.04
2019-03-22T05:06:20.925Z,79.72
2019-03-22T05:07:20.910Z,80.28
2019-03-22T05:08:20.879Z,81.00
2019-03-22T05:09:20.872Z,81.62
2019-03-22T05:10:20.872Z,82.79
2019-03-22T05:11:20.849Z,82.73
2019-03-22T05:12:20.858Z,82.79
2019-03-22T05:13:20.836Z,82.79
2019-03-22T05:14:20.824Z,82.38
2019-03-22T05:15:20.807Z,82.65
2019-03-22T05:16:20.807Z,82.45
2019-03-22T05:17:20.810Z,82.03
2019-03-22T05:18:20.785Z,81.82
2019-03-22T05:19:20.768Z,81.72
2019-03-22T05:20:20.755Z,81.72
2019-03-22T05:21:20.760Z,81.62
2019-03-22T05:22:20.762Z,81.51
2019-03-22T05:23:20.727Z,80.69
2019-03-22T05:24:20.724Z,80.69
2019-03-22T05:25:20.705Z,80.96
2019-03-22T05:26:20.696Z,81.17
2019-03-22T05:27:20.707Z,80.55
2019-03-22T05:28:20.679Z,80.14
2019-03-22T05:29:30.145Z,79.97
2019-03-22T05:30:21.669Z,79.97
2019-03-22T05:31:20.651Z,81.10
2019-03-22T05:32:20.659Z,81.51
2019-03-22T05:33:20.624Z,80.90
2019-03-22T05:34:20.614Z,80.90
2019-03-22T05:35:20.604Z,81.00
2019-03-22T05:36:20.605Z,81.07
2019-03-22T05:37:20.603Z,81.00
2019-03-22T05:38:20.570Z,80.69
2019-03-22T05:39:20.561Z,80.48
2019-03-22T05:40:20.555Z,80.04
2019-03-22T05:41:20.547Z,80.34
2019-03-22T05:42:20.567Z,80.24
2019-03-22T05:43:20.518Z,79.86
2019-03-22T05:44:20.523Z,80.24
2019-03-22T05:45:20.499Z,80.24
2019-03-22T05:46:27.577Z,80.14
2019-03-22T05:47:20.498Z,80.34
2019-03-22T05:48:20.466Z,79.86
2019-03-22T05:49:20.455Z,81.00
2019-03-22T05:50:20.445Z,81.10
2019-03-22T05:51:20.436Z,80.69
2019-03-22T05:52:20.453Z,80.79
2019-03-22T05:53:20.413Z,80.96
2019-03-22T05:54:20.411Z,80.86
2019-03-22T05:55:20.412Z,81.72
2019-03-22T05:56:20.389Z,81.51
2019-03-22T05:57:20.396Z,81.21
2019-03-22T05:58:20.363Z,81.51
2019-03-22T05:59:20.351Z,81.62
2019-03-22T06:00:20.360Z,81.62
2019-03-22T06:01:20.332Z,81.93
2019-03-22T06:02:20.340Z,81.62
2019-03-22T06:03:20.313Z,81.72
2019-03-22T06:04:20.301Z,81.21
2019-03-22T06:05:20.290Z,81.48
2019-03-22T06:06:20.289Z,81.07
2019-03-22T06:07:20.303Z,81.07
2019-03-22T06:08:20.267Z,80.76
2019-03-22T06:09:20.250Z,80.76
2019-03-22T06:10:20.240Z,81.27
2019-03-22T06:11:20.232Z,80.62
2019-03-22T06:12:20.266Z,79.79
2019-03-22T06:13:20.211Z,80.00
2019-03-22T06:14:20.204Z,80.20
2019-03-22T06:15:20.196Z,79.79
2019-03-22T06:16:20.182Z,80.10
2019-03-22T06:17:20.175Z,78.97
2019-03-22T06:18:20.178Z,79.38
2019-03-22T06:19:20.157Z,79.38
2019-03-22T06:20:20.152Z,79.34
2019-03-22T06:21:20.127Z,78.93
2019-03-22T06:22:20.121Z,78.72
2019-03-22T06:23:20.137Z,79.03
2019-03-22T06:24:22.222Z,78.72
2019-03-22T06:25:20.091Z,78.93
2019-03-22T06:26:20.084Z,78.72
2019-03-22T06:27:20.129Z,78.48
2019-03-22T06:28:20.073Z,79.55
2019-03-22T06:29:20.046Z,79.20
2019-03-22T06:30:20.050Z,79.03
2019-03-22T06:31:20.837Z,78.89
2019-03-22T06:32:20.019Z,79.00
2019-03-22T06:33:20.036Z,78.79
2019-03-22T06:34:20.003Z,78.65
2019-03-22T06:35:20.023Z,79.20
2019-03-22T06:36:19.974Z,78.75
2019-03-22T06:37:19.965Z,78.24
2019-03-22T06:38:19.980Z,77.21
2019-03-22T06:39:19.944Z,77.35
2019-03-22T06:40:19.934Z,76.93
2019-03-22T06:41:19.923Z,76.59
2019-03-22T06:42:19.920Z,76.59
2019-03-22T06:43:19.927Z,76.79
2019-03-22T06:44:19.908Z,76.59
2019-03-22T06:45:19.886Z,76.70
2019-03-22T06:46:19.875Z,76.18
2019-03-22T06:47:19.869Z,76.14
2019-03-22T06:48:19.888Z,75.84
2019-03-22T06:49:19.846Z,75.12
2019-03-22T06:50:19.837Z,75.52
2019-03-22T06:51:19.828Z,75.73
2019-03-22T06:52:19.814Z,76.14
2019-03-22T06:53:19.836Z,75.49
2019-03-22T06:54:31.161Z,75.39
2019-03-22T06:55:20.788Z,75.49
2019-03-22T06:56:19.809Z,74.98
2019-03-22T06:57:19.768Z,75.18
2019-03-22T06:58:19.815Z,75.49
2019-03-22T06:59:19.756Z,74.84
2019-03-22T07:00:19.731Z,74.74
2019-03-22T07:01:19.726Z,74.43
2019-03-22T07:02:19.722Z,73.88
2019-03-22T07:03:19.727Z,73.85
2019-03-22T07:04:19.690Z,73.74
2019-03-22T07:05:19.679Z,73.13
2019-03-22T07:06:19.676Z,73.54
2019-03-22T07:07:19.660Z,72.41
2019-03-22T07:08:19.667Z,72.82
2019-03-22T07:09:19.639Z,72.72
2019-03-22T07:10:19.627Z,73.23
2019-03-22T07:11:19.630Z,72.92
2019-03-22T07:12:19.611Z,73.23
2019-03-22T07:13:19.615Z,72.58
2019-03-22T07:14:19.590Z,72.31
2019-03-22T07:15:19.574Z,72.17
2019-03-22T07:16:19.580Z,72.48
2019-03-22T07:17:19.557Z,72.89
2019-03-22T07:18:19.562Z,72.89
2019-03-22T07:19:19.530Z,72.38
2019-03-22T07:20:19.521Z,72.17
2019-03-22T07:21:19.521Z,71.83
2019-03-22T07:22:19.513Z,71.42
2019-03-22T07:23:19.514Z,71.62
2019-03-22T07:24:19.479Z,71.93
2019-03-22T07:25:19.467Z,72.14
2019-03-22T07:26:19.471Z,71.42
2019-03-22T07:27:19.455Z,71.28
2019-03-22T07:28:19.464Z,71.18
2019-03-22T07:29:19.427Z,71.48
2019-03-22T07:30:19.474Z,71.45
2019-03-22T07:31:19.402Z,70.64
2019-03-22T07:32:19.392Z,70.53
2019-03-22T07:33:19.399Z,70.53
2019-03-22T07:34:19.377Z,69.98
2019-03-22T07:35:19.362Z,69.95
2019-03-22T07:36:19.347Z,69.65
2019-03-22T07:37:19.341Z,68.62
2019-03-22T07:38:19.377Z,68.41
2019-03-22T07:39:19.324Z,69.06
2019-03-22T07:40:19.310Z,69.24
2019-03-22T07:41:19.295Z,68.11
2019-03-22T07:42:19.284Z,68.38
2019-03-22T07:43:19.297Z,68.49
2019-03-22T07:44:19.264Z,68.08
2019-03-22T07:45:19.257Z,67.77
2019-03-22T07:46:19.239Z,67.84
2019-03-22T07:47:19.246Z,67.94
2019-03-22T07:48:19.240Z,67.13
2019-03-22T07:49:19.212Z,66.58
2019-03-22T07:50:19.199Z,66.96
2019-03-22T07:51:19.190Z,66.35
2019-03-22T07:52:19.176Z,65.30
2019-03-22T07:53:19.188Z,65.09
2019-03-22T07:54:19.163Z,64.55
2019-03-22T07:55:19.149Z,64.24
2019-03-22T07:56:19.136Z,64.75
2019-03-22T07:57:19.122Z,63.90
2019-03-22T07:58:19.402Z,63.60
2019-03-22T07:59:19.099Z,63.16
2019-03-22T08:00:30.162Z,62.55
2019-03-22T08:01:20.076Z,62.24
2019-03-22T08:02:19.086Z,62.21
2019-03-22T08:03:19.054Z,62.11
2019-03-22T08:04:19.070Z,61.57
2019-03-22T08:05:19.035Z,61.16
2019-03-22T08:06:19.038Z,60.73
2019-03-22T08:07:19.013Z,59.91
2019-03-22T08:08:19.004Z,60.06
2019-03-22T08:09:19.037Z,59.14
2019-03-22T08:10:19.000Z,59.35
2019-03-22T08:11:18.969Z,59.07
2019-03-22T08:12:19.573Z,59.48
2019-03-22T08:13:18.948Z,59.75
2019-03-22T08:14:18.954Z,58.84
2019-03-22T08:15:18.924Z,57.72
2019-03-22T08:16:18.914Z,59.38
2019-03-22T08:17:18.901Z,59.10
2019-03-22T08:18:18.920Z,59.30
2019-03-22T08:19:18.901Z,59.53
2019-03-22T08:20:18.902Z,60.02
2019-03-22T08:21:18.859Z,59.68
2019-03-22T08:22:18.846Z,58.97
2019-03-22T08:23:18.878Z,57.95
2019-03-22T08:24:18.859Z,58.23
2019-03-22T08:25:18.824Z,57.18
2019-03-22T08:26:18.815Z,56.95
2019-03-22T08:27:18.803Z,56.04
2019-03-22T08:28:18.778Z,55.51
2019-03-22T08:29:18.814Z,54.03
2019-03-22T08:30:18.785Z,53.17
2019-03-22T08:31:18.768Z,51.60
2019-03-22T08:32:18.828Z,51.37
2019-03-22T08:33:18.747Z,50.84
2019-03-22T08:34:18.746Z,50.31
2019-03-22T08:35:18.722Z,50.09
2019-03-22T08:36:18.701Z,49.78
2019-03-22T08:37:18.711Z,49.98
2019-03-22T08:38:18.675Z,49.78
2019-03-22T08:39:18.714Z,49.25
2019-03-22T08:40:18.664Z,49.22
2019-03-22T08:41:18.650Z,48.70
2019-03-22T08:42:18.622Z,47.69
2019-03-22T08:43:18.616Z,48.30
2019-03-22T08:44:18.664Z,47.44
2019-03-22T08:45:18.594Z,47.54
2019-03-22T08:46:18.581Z,46.49
2019-03-22T08:47:18.617Z,45.92
2019-03-22T08:48:18.608Z,44.17
2019-03-22T08:49:18.622Z,43.92
2019-03-22T08:50:18.546Z,43.48
2019-03-22T08:51:18.523Z,41.13
2019-03-22T08:52:18.548Z,42.03
2019-03-22T08:53:18.554Z,42.21
2019-03-22T08:54:18.522Z,40.77
2019-03-22T08:55:18.523Z,39.83
2019-03-22T08:56:18.479Z,39.20
2019-03-22T08:57:18.461Z,37.76
2019-03-22T08:58:18.942Z,37.84
2019-03-22T08:59:18.459Z,37.76
2019-03-22T09:00:18.479Z,37.66
2019-03-22T09:01:18.473Z,36.63
2019-03-22T09:02:18.440Z,36.31
2019-03-22T09:03:18.444Z,36.69
2019-03-22T09:04:18.411Z,36.04
2019-03-22T09:05:18.390Z,35.13
2019-03-22T09:06:18.367Z,33.53
2019-03-22T09:07:18.416Z,33.45
2019-03-22T09:08:18.387Z,34.27
2019-03-22T09:09:18.357Z,35.03
2019-03-22T09:10:18.361Z,34.64
2019-03-22T09:11:18.363Z,35.39
2019-03-22T09:12:18.357Z,34.89
2019-03-22T09:13:18.324Z,35.28
2019-03-22T09:14:18.348Z,35.17
2019-03-22T09:15:18.267Z,34.64
2019-03-22T09:16:18.271Z,35.10
2019-03-22T09:17:18.246Z,32.87
2019-03-22T09:18:18.258Z,32.48
2019-03-22T09:19:18.243Z,32.78
2019-03-22T09:20:18.233Z,32.76
2019-03-22T09:21:18.217Z,33.04
2019-03-22T09:22:18.195Z,33.67
2019-03-22T09:23:18.185Z,33.64
2019-03-22T09:24:19.144Z,32.43
2019-03-22T09:25:18.163Z,32.03
2019-03-22T09:26:19.978Z,32.56
2019-03-22T09:27:18.166Z,32.87
2019-03-22T09:28:18.149Z,34.00
2019-03-22T09:29:18.196Z,34.66
2019-03-22T09:30:18.109Z,34.56
2019-03-22T09:31:18.108Z,36.22
2019-03-22T09:32:18.131Z,35.83
2019-03-22T09:33:18.130Z,35.51
2019-03-22T09:34:18.128Z,36.13
2019-03-22T09:35:18.101Z,35.53
2019-03-22T09:36:18.051Z,37.08
2019-03-22T09:37:18.058Z,36.07
2019-03-22T09:38:18.026Z,35.96
2019-03-22T09:39:18.064Z,34.27
2019-03-22T09:40:18.012Z,35.24
2019-03-22T09:41:18.003Z,34.31
2019-03-22T09:42:17.981Z,33.14
2019-03-22T09:43:17.978Z,34.53
2019-03-22T09:44:17.982Z,34.53
2019-03-22T09:45:17.972Z,34.71
2019-03-22T09:46:17.954Z,33.22
2019-03-22T09:47:17.983Z,34.31
2019-03-22T09:48:17.959Z,33.30
2019-03-22T09:49:17.947Z,32.97
2019-03-22T09:50:17.904Z,32.96
2019-03-22T09:51:17.909Z,32.67
2019-03-22T09:52:17.911Z,33.11
2019-03-22T09:53:17.868Z,33.92
2019-03-22T09:54:17.929Z,33.78
2019-03-22T09:55:17.847Z,32.76
2019-03-22T09:56:17.889Z,32.46
2019-03-22T09:57:17.840Z,32.66
2019-03-22T09:58:17.816Z,32.78
2019-03-22T09:59:17.804Z,33.80
2019-03-22T10:00:17.818Z,33.27
2019-03-22T10:01:23.544Z,32.53
2019-03-22T10:02:18.817Z,32.63
2019-03-22T10:03:17.779Z,31.62
2019-03-22T10:04:17.753Z,31.93
2019-03-22T10:05:17.785Z,32.86
2019-03-22T10:06:17.733Z,33.37
2019-03-22T10:07:17.737Z,33.83
2019-03-22T10:08:17.809Z,33.21
2019-03-22T10:09:17.750Z,31.69
2019-03-22T10:10:17.711Z,30.55
2019-03-22T10:11:17.680Z,30.76
2019-03-22T10:12:17.678Z,30.92
2019-03-22T10:13:17.688Z,30.20
2019-03-22T10:14:17.672Z,29.10
2019-03-22T10:15:17.722Z,30.17
2019-03-22T10:16:17.642Z,29.68
2019-03-22T10:17:17.625Z,29.17
2019-03-22T10:18:17.609Z,28.78
2019-03-22T10:19:17.638Z,28.70
2019-03-22T10:20:17.612Z,29.74
2019-03-22T10:21:22.678Z,30.23
2019-03-22T10:22:18.568Z,30.33
2019-03-22T10:23:17.559Z,29.21
2019-03-22T10:24:17.555Z,29.65
2019-03-22T10:25:17.564Z,29.23
2019-03-22T10:26:17.557Z,29.68
2019-03-22T10:27:17.544Z,28.27
2019-03-22T10:28:17.512Z,28.06
2019-03-22T10:29:17.497Z,28.17
2019-03-22T10:30:17.547Z,28.28
2019-03-22T10:31:17.511Z,29.13
2019-03-22T10:32:17.497Z,28.93
2019-03-22T10:33:22.459Z,29.14
2019-03-22T10:34:18.446Z,29.21
2019-03-22T10:35:25.961Z,29.30
2019-03-22T10:36:18.428Z,29.17
2019-03-22T10:37:17.522Z,28.14
2019-03-22T10:38:30.668Z,27.94
2019-03-22T10:39:18.439Z,28.19
2019-03-22T10:40:17.409Z,26.48
2019-03-22T10:41:17.383Z,25.71
2019-03-22T10:42:17.408Z,25.90
2019-03-22T10:43:17.363Z,25.70
2019-03-22T10:44:17.362Z,25.40
2019-03-22T10:45:17.388Z,24.73
2019-03-22T10:46:17.363Z,24.73
2019-03-22T10:47:18.149Z,25.39
2019-03-22T10:48:17.307Z,25.37
2019-03-22T10:49:17.321Z,24.59
2019-03-22T10:50:17.311Z,23.90
2019-03-22T10:51:17.293Z,23.42
2019-03-22T10:52:17.270Z,23.41
2019-03-22T10:53:17.262Z,22.99
2019-03-22T10:54:17.283Z,22.02
2019-03-22T10:55:29.223Z,23.60
2019-03-22T10:56:18.234Z,23.30
2019-03-22T10:57:17.233Z,24.27
2019-03-22T10:58:21.238Z,23.76
2019-03-22T10:59:17.214Z,23.37
2019-03-22T11:00:17.233Z,23.38
2019-03-22T11:01:17.183Z,23.37
2019-03-22T11:02:17.172Z,22.71
2019-03-22T11:03:17.185Z,22.42
2019-03-22T11:04:17.161Z,22.92
2019-03-22T11:05:17.165Z,22.84
2019-03-22T11:06:25.833Z,22.72
2019-03-22T11:07:18.126Z,22.31
2019-03-22T11:08:17.116Z,22.41
2019-03-22T11:09:17.244Z,23.12
2019-03-22T11:10:17.119Z,23.14
2019-03-22T11:11:17.088Z,24.59
2019-03-22T11:12:17.079Z,24.63
2019-03-22T11:13:17.067Z,24.65
2019-03-22T11:14:17.061Z,26.90
2019-03-22T11:15:17.080Z,27.42
2019-03-22T11:16:17.043Z,27.40
2019-03-22T11:17:17.029Z,26.97
2019-03-22T11:18:17.020Z,26.77
2019-03-22T11:19:17.015Z,27.45
2019-03-22T11:20:17.019Z,27.17
2019-03-22T11:21:17.010Z,26.75
2019-03-22T11:22:16.987Z,25.63
2019-03-22T11:23:16.979Z,25.34
2019-03-22T11:24:16.962Z,25.73
2019-03-22T11:25:16.975Z,25.13
2019-03-22T11:26:16.942Z,24.45
2019-03-22T11:27:16.945Z,24.87
2019-03-22T11:28:16.920Z,25.74
2019-03-22T11:29:16.910Z,25.84
2019-03-22T11:30:16.920Z,25.43
2019-03-22T11:31:16.889Z,24.76
2019-03-22T11:32:16.881Z,25.18
2019-03-22T11:33:16.881Z,25.89
2019-03-22T11:34:16.861Z,25.56
2019-03-22T11:35:16.871Z,24.95
2019-03-22T11:36:16.841Z,24.74
2019-03-22T11:37:16.841Z,23.95
2019-03-22T11:38:16.824Z,23.66
2019-03-22T11:39:16.820Z,24.16
2019-03-22T11:40:16.819Z,23.57
2019-03-22T11:41:16.797Z,24.35
2019-03-22T11:42:16.781Z,23.84
2019-03-22T11:43:16.771Z,23.52
2019-03-22T11:44:16.766Z,23.91
2019-03-22T11:45:16.785Z,23.79
2019-03-22T11:46:16.747Z,22.94
2019-03-22T11:47:16.733Z,23.73
2019-03-22T11:48:16.724Z,23.94
2019-03-22T11:49:16.717Z,24.13
2019-03-22T11:50:16.720Z,23.72
2019-03-22T11:51:16.708Z,23.79
2019-03-22T11:52:16.688Z,23.17
2019-03-22T11:53:16.677Z,22.38
2019-03-22T11:54:16.663Z,22.61
2019-03-22T11:55:16.674Z,22.71
2019-03-22T11:56:16.647Z,23.39
2019-03-22T11:57:16.649Z,23.00
2019-03-22T11:58:16.624Z,23.31
2019-03-22T11:59:16.617Z,24.07
2019-03-22T12:00:16.629Z,24.71
2019-03-22T12:01:20.376Z,25.39
2019-03-22T12:02:22.320Z,24.46
2019-03-22T12:03:17.585Z,24.65
2019-03-22T12:04:16.565Z,24.55
2019-03-22T12:05:16.587Z,24.24
2019-03-22T12:06:16.545Z,24.02
2019-03-22T12:07:16.539Z,24.60
2019-03-22T12:08:16.536Z,22.69
2019-03-22T12:09:16.515Z,22.08
2019-03-22T12:10:16.505Z,22.06
2019-03-22T12:11:16.514Z,23.47
2019-03-22T12:12:16.490Z,22.77
2019-03-22T12:13:16.477Z,22.77
2019-03-22T12:14:16.480Z,22.20
2019-03-22T12:15:16.460Z,22.20
2019-03-22T12:16:16.466Z,23.18
2019-03-22T12:17:16.439Z,22.77
2019-03-22T12:18:16.426Z,22.30
2019-03-22T12:19:16.428Z,22.78
2019-03-22T12:20:16.422Z,22.81
2019-03-22T12:21:16.417Z,23.10
2019-03-22T12:22:16.389Z,22.93
2019-03-22T12:23:16.377Z,23.33
2019-03-22T12:24:16.367Z,22.24
2019-03-22T12:25:16.360Z,22.52
2019-03-22T12:26:16.378Z,23.60
2019-03-22T12:27:16.346Z,22.41
2019-03-22T12:28:16.327Z,21.92
2019-03-22T12:29:16.317Z,22.31
2019-03-22T12:30:16.306Z,22.23
2019-03-22T12:31:16.317Z,21.33
2019-03-22T12:32:16.304Z,21.33
2019-03-22T12:33:16.278Z,21.23
2019-03-22T12:34:16.281Z,22.02
2019-03-22T12:35:16.472Z,21.43
2019-03-22T12:36:16.483Z,21.73
2019-03-22T12:37:16.237Z,21.55
2019-03-22T12:38:16.238Z,21.26
2019-03-22T12:39:16.224Z,21.98
2019-03-22T12:40:16.209Z,22.48
2019-03-22T12:41:16.215Z,22.69
2019-03-22T12:42:16.187Z,22.28
2019-03-22T12:43:16.177Z,22.88
2019-03-22T12:44:16.181Z,22.89
2019-03-22T12:45:16.158Z,23.07
2019-03-22T12:46:16.177Z,22.85
2019-03-22T12:47:16.142Z,22.56
2019-03-22T12:48:16.130Z,23.26
2019-03-22T12:49:16.117Z,22.37
2019-03-22T12:50:16.119Z,22.38
2019-03-22T12:51:16.118Z,22.56
2019-03-22T12:52:16.092Z,22.85
2019-03-22T12:53:16.078Z,22.44
2019-03-22T12:54:16.068Z,22.22
2019-03-22T12:55:16.056Z,22.15
2019-03-22T12:56:16.079Z,22.47
2019-03-22T12:57:16.037Z,22.09
2019-03-22T12:58:16.026Z,22.37
2019-03-22T12:59:16.021Z,22.77
2019-03-22T13:00:16.007Z,22.56
2019-03-22T13:01:16.022Z,22.47
2019-03-22T13:02:16.005Z,22.37
2019-03-22T13:03:15.977Z,22.67
2019-03-22T13:04:15.966Z,22.47
2019-03-22T13:05:15.956Z,23.39
2019-03-22T13:06:15.965Z,23.79
2019-03-22T13:07:15.938Z,22.97
2019-03-22T13:08:15.938Z,22.56
2019-03-22T13:09:15.916Z,22.25
2019-03-22T13:10:15.905Z,22.35
2019-03-22T13:11:15.915Z,22.75
2019-03-22T13:12:15.886Z,22.28
2019-03-22T13:13:15.877Z,23.61
2019-03-22T13:14:15.869Z,23.14
2019-03-22T13:15:15.858Z,23.78
2019-03-22T13:16:15.865Z,24.96
2019-03-22T13:17:15.832Z,23.67
2019-03-22T13:18:15.822Z,24.16
2019-03-22T13:19:15.813Z,24.57
2019-03-22T13:20:15.809Z,23.67
2019-03-22T13:21:15.816Z,23.68
2019-03-22T13:22:15.786Z,23.69
2019-03-22T13:23:15.774Z,24.18
2019-03-22T13:24:15.762Z,24.47
2019-03-22T13:25:15.751Z,24.46
2019-03-22T13:26:15.777Z,24.84
2019-03-22T13:27:15.730Z,24.45
2019-03-22T13:28:15.723Z,23.85
2019-03-22T13:29:15.711Z,24.67
2019-03-22T13:30:15.711Z,24.18
2019-03-22T13:31:15.711Z,24.46
2019-03-22T13:32:15.678Z,24.27
2019-03-22T13:33:15.678Z,24.40
2019-03-22T13:34:15.661Z,24.90
2019-03-22T13:35:15.648Z,25.30
2019-03-22T13:36:17.089Z,25.60
2019-03-22T13:37:15.629Z,26.10
2019-03-22T13:38:15.625Z,27.82
2019-03-22T13:39:15.623Z,27.26
2019-03-22T13:40:15.604Z,27.89
2019-03-22T13:41:15.619Z,28.63
2019-03-22T13:42:15.584Z,29.46
2019-03-22T13:43:15.570Z,29.17
2019-03-22T13:44:15.576Z,29.48
2019-03-22T13:45:15.547Z,30.90
2019-03-22T13:46:15.555Z,29.30
2019-03-22T13:47:15.523Z,30.51
2019-03-22T13:48:15.514Z,31.52
2019-03-22T13:49:15.514Z,30.94
2019-03-22T13:50:15.505Z,31.96
2019-03-22T13:51:15.503Z,31.85
2019-03-22T13:52:15.470Z,31.96
2019-03-22T13:53:15.461Z,31.37
2019-03-22T13:54:15.449Z,31.97
2019-03-22T13:55:15.441Z,32.29
2019-03-22T13:56:15.482Z,32.00
2019-03-22T13:57:15.419Z,33.11
2019-03-22T13:58:15.410Z,32.90
2019-03-22T13:59:15.409Z,32.70
2019-03-22T14:00:15.395Z,33.19
2019-03-22T14:01:15.375Z,33.09
2019-03-22T14:02:15.401Z,32.49
2019-03-22T14:03:15.356Z,32.18
2019-03-22T14:04:15.344Z,31.88
2019-03-22T14:05:15.333Z,32.60
2019-03-22T14:06:15.322Z,33.00
2019-03-22T14:07:15.337Z,33.31
2019-03-22T14:08:15.320Z,33.00
2019-03-22T14:09:15.290Z,33.11
2019-03-22T14:10:15.279Z,33.20
2019-03-22T14:11:15.269Z,34.12
2019-03-22T14:12:15.278Z,33.91
2019-03-22T14:13:15.249Z,33.31
2019-03-22T14:14:15.257Z,32.50
2019-03-22T14:15:15.237Z,33.42
2019-03-22T14:16:15.217Z,33.02
2019-03-22T14:17:15.230Z,33.22
2019-03-22T14:18:15.196Z,33.42
2019-03-22T14:19:15.188Z,33.32
2019-03-22T14:20:15.178Z,33.72
2019-03-22T14:21:15.166Z,33.92
2019-03-22T14:22:15.172Z,33.42
2019-03-22T14:23:15.204Z,32.82
2019-03-22T14:24:15.129Z,33.62
2019-03-22T14:25:15.122Z,33.62
2019-03-22T14:26:15.109Z,33.42
2019-03-22T14:27:15.117Z,33.22
2019-03-22T14:28:15.087Z,32.92
2019-03-22T14:29:15.091Z,33.32
2019-03-22T14:30:15.069Z,32.72
2019-03-22T14:31:15.056Z,32.82
2019-03-22T14:32:15.063Z,33.12
2019-03-22T14:33:15.038Z,33.42
2019-03-22T14:34:15.023Z,33.72
2019-03-22T14:35:15.011Z,33.62
2019-03-22T14:36:15.014Z,33.72
2019-03-22T14:37:15.010Z,33.83
2019-03-22T14:38:14.980Z,33.62
2019-03-22T14:39:14.973Z,33.83
2019-03-22T14:40:15.814Z,33.62
2019-03-22T14:41:14.946Z,33.72
2019-03-22T14:42:14.971Z,33.22
2019-03-22T14:43:14.926Z,34.02
2019-03-22T14:44:15.031Z,33.54
2019-03-22T14:45:15.914Z,33.74
2019-03-22T14:46:14.895Z,33.54
2019-03-22T14:47:14.902Z,33.44
2019-03-22T14:48:14.892Z,33.64
2019-03-22T14:49:14.864Z,34.14
2019-03-22T14:50:14.851Z,33.74
2019-03-22T14:51:14.838Z,34.42
2019-03-22T14:52:14.846Z,33.64
2019-03-22T14:53:14.817Z,33.74
2019-03-22T14:54:14.813Z,33.44
2019-03-22T14:55:14.797Z,34.12
2019-03-22T14:56:14.787Z,33.32
2019-03-22T14:57:14.792Z,34.22
2019-03-22T14:58:14.764Z,34.22
2019-03-22T14:59:14.753Z,33.72
2019-03-22T15:00:14.748Z,34.24
2019-03-22T15:01:14.731Z,33.83
2019-03-22T15:02:14.741Z,33.83
2019-03-22T15:03:22.402Z,33.22
2019-03-22T15:04:15.698Z,33.62
2019-03-22T15:05:14.687Z,34.04
2019-03-22T15:06:14.676Z,34.04
2019-03-22T15:07:19.471Z,34.42
2019-03-22T15:08:15.653Z,33.64
2019-03-22T15:09:14.643Z,34.24
2019-03-22T15:10:14.634Z,34.53
2019-03-22T15:11:14.621Z,33.84
2019-03-22T15:12:14.630Z,33.92
2019-03-22T15:13:14.616Z,33.72
2019-03-22T15:14:14.588Z,34.14
2019-03-22T15:15:14.582Z,34.02
2019-03-22T15:16:14.566Z,33.84
2019-03-22T15:17:14.580Z,33.52
2019-03-22T15:18:14.547Z,33.74
2019-03-22T15:19:14.547Z,33.74
2019-03-22T15:20:14.523Z,34.04
2019-03-22T15:21:14.515Z,34.34
2019-03-22T15:22:14.526Z,34.04
2019-03-22T15:23:14.490Z,34.14
2019-03-22T15:24:14.481Z,34.34
2019-03-22T15:25:14.483Z,33.84
2019-03-22T15:26:14.456Z,34.64
2019-03-22T15:27:14.469Z,34.84
2019-03-22T15:28:14.438Z,35.05
2019-03-22T15:30:14.418Z,35.25
2019-03-22T15:31:14.424Z,34.44
2019-03-22T15:32:14.416Z,34.94
2019-03-22T15:33:14.412Z,34.94
2019-03-22T15:34:14.371Z,35.44
2019-03-22T15:35:14.427Z,35.35
2019-03-22T15:36:14.357Z,35.25
2019-03-22T15:37:15.421Z,34.94
2019-03-22T15:38:14.327Z,35.25
2019-03-22T15:39:14.629Z,35.06
2019-03-22T15:40:14.304Z,34.84
2019-03-22T15:41:14.293Z,35.14
2019-03-22T15:42:14.307Z,35.25
2019-03-22T15:43:14.346Z,35.14
2019-03-22T15:44:14.360Z,35.66
2019-03-22T15:45:14.336Z,35.55
2019-03-22T15:46:14.246Z,35.35
2019-03-22T15:47:14.229Z,35.57
2019-03-22T15:48:14.236Z,35.06
2019-03-22T15:49:14.221Z,35.16
2019-03-22T15:50:14.201Z,35.86
2019-03-22T15:51:14.188Z,35.46
2019-03-22T15:52:14.174Z,35.77
2019-03-22T15:53:14.182Z,35.36
2019-03-22T15:54:14.152Z,35.06
2019-03-22T15:55:14.154Z,35.36
2019-03-22T15:56:14.129Z,35.46
2019-03-22T15:57:14.121Z,36.16
2019-03-22T15:58:14.130Z,35.85
2019-03-22T15:59:14.103Z,35.36
2019-03-22T16:00:14.107Z,36.16
2019-03-22T16:01:14.128Z,35.77
2019-03-22T16:02:14.069Z,35.97
2019-03-22T16:03:14.089Z,36.36
2019-03-22T16:04:14.043Z,36.47
2019-03-22T16:05:14.034Z,35.46
2019-03-22T16:06:14.024Z,35.46
2019-03-22T16:07:14.024Z,35.36
2019-03-22T16:08:14.023Z,35.46
2019-03-22T16:09:14.004Z,35.36
2019-03-22T16:10:13.978Z,35.97
2019-03-22T16:11:13.973Z,35.46
2019-03-22T16:12:13.957Z,36.36
2019-03-22T16:13:13.967Z,36.47
2019-03-22T16:14:13.936Z,35.77
2019-03-22T16:15:13.941Z,36.57
2019-03-22T16:16:13.913Z,36.36
2019-03-22T16:17:13.904Z,36.47
2019-03-22T16:18:13.914Z,36.36
2019-03-22T16:19:13.912Z,36.27
2019-03-22T16:20:13.871Z,36.47
2019-03-22T16:21:13.872Z,35.86
2019-03-22T16:22:13.849Z,35.26
2019-03-22T16:23:13.859Z,36.27
2019-03-22T16:24:13.828Z,35.66
2019-03-22T16:25:13.819Z,35.97
2019-03-22T16:26:13.805Z,36.36
2019-03-22T16:27:13.811Z,35.86
2019-03-22T16:28:13.803Z,35.36
2019-03-22T16:29:13.779Z,34.78
2019-03-22T16:30:13.761Z,35.16
2019-03-22T16:31:13.750Z,34.96
2019-03-22T16:32:13.743Z,35.38
2019-03-22T16:33:13.763Z,33.75
2019-03-22T16:34:13.716Z,33.75
2019-03-22T16:35:13.706Z,34.46
2019-03-22T16:36:13.700Z,33.86
2019-03-22T16:37:13.684Z,33.67
2019-03-22T16:38:13.700Z,33.15
2019-03-22T16:39:13.687Z,33.77
2019-03-22T16:40:13.657Z,33.57
2019-03-22T16:41:13.649Z,34.26
2019-03-22T16:42:13.630Z,33.75
2019-03-22T16:43:13.645Z,34.17
2019-03-22T16:44:13.612Z,33.67
2019-03-22T16:45:13.610Z,34.98
2019-03-22T16:46:14.275Z,34.67
2019-03-22T16:47:13.575Z,34.78
2019-03-22T16:48:13.583Z,34.98
2019-03-22T16:49:13.556Z,34.67
2019-03-22T16:50:13.546Z,33.87
2019-03-22T16:51:13.532Z,34.27
2019-03-22T16:52:13.579Z,34.67
2019-03-22T16:53:13.528Z,34.07
2019-03-22T16:54:13.504Z,33.97
2019-03-22T16:55:13.487Z,34.07
2019-03-22T16:56:13.477Z,34.07
2019-03-22T16:57:13.467Z,33.77
2019-03-22T16:58:13.509Z,33.87
2019-03-22T16:59:13.469Z,34.79
2019-03-22T17:00:13.435Z,33.89
2019-03-22T17:01:13.423Z,33.89
2019-03-22T17:02:13.436Z,34.29
2019-03-22T17:03:13.401Z,34.29
2019-03-22T17:04:13.408Z,34.29
2019-03-22T17:05:15.291Z,34.89
2019-03-22T17:06:13.398Z,33.79
2019-03-22T17:07:13.355Z,35.30
2019-03-22T17:08:13.357Z,34.79
2019-03-22T17:09:13.355Z,34.59
2019-03-22T17:10:13.325Z,34.99
2019-03-22T17:11:13.326Z,34.79
2019-03-22T17:12:13.308Z,35.10
2019-03-22T17:13:13.295Z,34.81
2019-03-22T17:14:13.301Z,35.39
2019-03-22T17:15:13.277Z,35.11
2019-03-22T17:16:13.267Z,35.41
2019-03-22T17:17:13.252Z,35.71
2019-03-22T17:18:13.237Z,34.81
2019-03-22T17:19:13.259Z,35.71
2019-03-22T17:20:13.216Z,35.01
2019-03-22T17:21:13.210Z,35.21
2019-03-22T17:22:13.207Z,35.01
2019-03-22T17:23:13.197Z,34.81
2019-03-22T17:24:13.193Z,35.71
2019-03-22T17:25:13.170Z,34.71
2019-03-22T17:26:13.165Z,35.63
2019-03-22T17:27:13.139Z,35.82
2019-03-22T17:28:13.142Z,35.83
2019-03-22T17:29:13.136Z,36.54
2019-03-22T17:30:13.106Z,36.44
2019-03-22T17:31:13.099Z,36.24
2019-03-22T17:32:13.112Z,36.13
2019-03-22T17:33:13.075Z,36.04
2019-03-22T17:34:14.540Z,36.54
2019-03-22T17:35:13.067Z,35.73
2019-03-22T17:36:13.043Z,36.33
2019-03-22T17:37:13.039Z,36.76
2019-03-22T17:38:13.034Z,36.76
2019-03-22T17:39:13.933Z,37.16
2019-03-22T17:40:13.000Z,37.16
2019-03-22T17:41:12.995Z,37.46
2019-03-22T17:42:12.993Z,37.27
2019-03-22T17:43:12.973Z,37.18
2019-03-22T17:44:13.002Z,37.07
2019-03-22T17:45:12.966Z,37.27
2019-03-22T17:46:12.940Z,36.98
2019-03-22T17:47:12.929Z,36.98
2019-03-22T17:48:12.923Z,37.58
2019-03-22T17:49:12.928Z,37.58
2019-03-22T17:50:12.915Z,38.28
2019-03-22T17:51:12.890Z,38.48
2019-03-22T17:52:12.882Z,38.48